createdAt,value
2019-05-20T00:01:43.966Z,80.98
2019-05-20T00:04:17.643Z,82.10
2019-05-20T00:06:46.923Z,82.72
2019-05-20T00:09:15.956Z,83.11
2019-05-20T00:11:47.830Z,84.21
2019-05-20T00:14:16.887Z,84.38
2019-05-20T00:16:49.092Z,83.57
2019-05-20T00:19:18.164Z,82.95
2019-05-20T00:21:47.193Z,84.12
2019-05-20T00:24:18.202Z,85.66
2019-05-20T00:26:47.310Z,86.98
2019-05-20T00:29:21.276Z,87.73
2019-05-20T00:31:50.364Z,87.75
2019-05-20T00:34:34.572Z,88.05
2019-05-20T00:36:59.533Z,88.05
2019-05-20T00:39:28.614Z,88.49
2019-05-20T00:42:06.643Z,88.23
2019-05-20T00:44:35.676Z,88.14
2019-05-20T00:47:09.185Z,87.75
2019-05-20T00:49:39.854Z,87.38
2019-05-20T00:52:08.998Z,87.65
2019-05-20T00:54:38.045Z,87.31
2019-05-20T00:57:07.074Z,86.87
2019-05-20T00:59:36.119Z,85.43
2019-05-20T01:02:05.438Z,85.09
2019-05-20T01:04:34.804Z,84.29
2019-05-20T01:07:06.883Z,84.26
2019-05-20T01:09:38.390Z,84.42
2019-05-20T01:12:07.494Z,84.11
2019-05-20T01:14:36.755Z,84.48
2019-05-20T01:17:07.581Z,84.32
2019-05-20T01:19:36.626Z,84.48
2019-05-20T01:22:05.897Z,84.03
2019-05-20T01:24:34.956Z,84.83
2019-05-20T01:27:05.188Z,84.14
2019-05-20T01:29:35.745Z,84.82
2019-05-20T01:32:09.346Z,85.20
2019-05-20T01:34:40.390Z,84.83
2019-05-20T01:37:11.301Z,84.77
2019-05-20T01:39:41.462Z,82.32
2019-05-20T01:42:12.309Z,83.69
2019-05-20T01:44:47.001Z,85.03
2019-05-20T01:47:22.534Z,85.69
2019-05-20T01:49:51.623Z,86.11
2019-05-20T01:52:24.352Z,85.15
2019-05-20T01:54:55.154Z,83.96
2019-05-20T01:57:24.591Z,83.78
2019-05-20T01:59:53.626Z,82.72
2019-05-20T02:02:23.449Z,81.62
2019-05-20T02:04:52.560Z,80.62
2019-05-20T02:07:24.346Z,80.16
2019-05-20T02:09:58.787Z,79.73
2019-05-20T02:12:27.956Z,79.47
2019-05-20T02:15:02.831Z,77.15
2019-05-20T02:17:42.912Z,77.59
2019-05-20T02:20:15.093Z,78.79
2019-05-20T02:22:44.137Z,79.68
2019-05-20T02:25:16.228Z,79.29
2019-05-20T02:27:45.277Z,80.31
2019-05-20T02:30:16.854Z,78.47
2019-05-20T02:32:48.857Z,76.68
2019-05-20T02:35:25.437Z,74.51
2019-05-20T02:37:54.829Z,75.28
2019-05-20T02:40:24.209Z,76.86
2019-05-20T02:42:53.467Z,77.81
2019-05-20T02:45:27.964Z,79.03
2019-05-20T02:47:58.769Z,78.87
2019-05-20T02:50:30.229Z,78.46
2019-05-20T02:53:00.665Z,78.94
2019-05-20T02:55:29.752Z,79.65
2019-05-20T02:58:08.074Z,78.64
2019-05-20T03:00:37.153Z,80.18
2019-05-20T03:03:06.234Z,79.83
2019-05-20T03:05:36.093Z,79.30
2019-05-20T03:08:08.063Z,80.66
2019-05-20T03:10:38.666Z,80.32
2019-05-20T03:13:07.684Z,80.35
2019-05-20T03:15:39.389Z,79.38
2019-05-20T03:18:11.477Z,78.43
2019-05-20T03:20:42.025Z,77.90
2019-05-20T03:23:14.539Z,80.90
2019-05-20T03:25:45.129Z,81.31
2019-05-20T03:28:16.160Z,80.02
2019-05-20T03:30:46.826Z,79.69
2019-05-20T03:33:15.971Z,80.43
2019-05-20T03:35:45.750Z,79.63
2019-05-20T03:38:17.800Z,80.40
2019-05-20T03:40:47.372Z,80.85
2019-05-20T03:43:32.028Z,80.25
2019-05-20T03:46:01.534Z,79.12
2019-05-20T03:48:30.938Z,79.60
2019-05-20T03:51:01.062Z,79.10
2019-05-20T03:53:31.813Z,77.37
2019-05-20T03:56:06.037Z,78.60
2019-05-20T03:58:37.553Z,80.64
2019-05-20T04:01:06.687Z,81.00
2019-05-20T04:03:37.634Z,82.65
2019-05-20T04:06:10.629Z,83.76
2019-05-20T04:08:39.758Z,82.06
2019-05-20T04:11:14.895Z,80.94
2019-05-20T04:13:43.936Z,80.85
2019-05-20T04:16:13.420Z,83.15
2019-05-20T04:18:45.951Z,84.16
2019-05-20T04:21:15.045Z,83.69
2019-05-20T04:23:45.607Z,81.80
2019-05-20T04:26:17.919Z,82.46
2019-05-20T04:28:47.179Z,83.34
2019-05-20T04:31:25.256Z,81.48
2019-05-20T04:33:57.173Z,82.02
2019-05-20T04:36:29.260Z,83.43
2019-05-20T04:39:01.290Z,82.14
2019-05-20T04:41:35.764Z,81.43
2019-05-20T04:44:04.804Z,80.05
2019-05-20T04:46:36.157Z,82.11
2019-05-20T04:49:12.663Z,82.76
2019-05-20T04:51:46.090Z,82.62
2019-05-20T04:54:17.205Z,82.84
2019-05-20T04:56:49.116Z,84.96
2019-05-20T04:59:19.616Z,84.31
2019-05-20T05:01:51.523Z,84.41
2019-05-20T05:04:20.966Z,85.17
2019-05-20T05:06:53.000Z,84.61
2019-05-20T05:09:27.847Z,84.24
2019-05-20T05:12:00.124Z,85.13
2019-05-20T05:14:34.534Z,84.51
2019-05-20T05:17:04.958Z,81.69
2019-05-20T05:19:36.549Z,84.11
2019-05-20T05:22:05.647Z,84.55
2019-05-20T05:24:42.360Z,85.13
2019-05-20T05:27:11.481Z,84.54
2019-05-20T05:29:41.196Z,83.85
2019-05-20T05:32:12.144Z,84.64
2019-05-20T05:34:43.471Z,84.14
2019-05-20T05:37:15.716Z,83.18
2019-05-20T05:39:46.942Z,83.94
2019-05-20T05:42:24.699Z,83.39
2019-05-20T05:44:53.995Z,83.64
2019-05-20T05:47:23.205Z,84.04
2019-05-20T05:49:52.373Z,82.92
2019-05-20T05:52:22.979Z,82.95
2019-05-20T05:54:55.681Z,82.59
2019-05-20T05:57:34.305Z,82.79
2019-05-20T06:00:07.264Z,82.71
2019-05-20T06:02:40.474Z,83.13
2019-05-20T06:05:10.753Z,83.90
2019-05-20T06:07:39.791Z,84.10
2019-05-20T06:10:10.280Z,85.73
2019-05-20T06:12:45.988Z,85.04
2019-05-20T06:15:16.347Z,84.36
2019-05-20T06:17:46.565Z,84.18
2019-05-20T06:20:18.057Z,83.09
2019-05-20T06:22:47.127Z,83.24
2019-05-20T06:25:16.776Z,81.50
2019-05-20T06:27:48.681Z,81.26
2019-05-20T06:30:18.520Z,81.92
2019-05-20T06:32:48.783Z,81.07
2019-05-20T06:35:18.444Z,81.58
2019-05-20T06:37:55.606Z,83.28
2019-05-20T06:40:26.733Z,81.94
2019-05-20T06:43:01.691Z,83.42
2019-05-20T06:45:31.301Z,83.09
2019-05-20T06:48:17.795Z,83.71
2019-05-20T06:50:47.752Z,84.08
2019-05-20T06:53:17.071Z,83.59
2019-05-20T06:55:48.694Z,84.41
2019-05-20T06:58:21.119Z,83.33
2019-05-20T07:00:53.956Z,82.77
2019-05-20T07:03:23.136Z,82.42
2019-05-20T07:05:52.240Z,83.15
2019-05-20T07:08:21.798Z,83.19
2019-05-20T07:10:53.126Z,84.35
2019-05-20T07:13:23.752Z,83.00
2019-05-20T07:15:58.861Z,83.30
2019-05-20T07:18:33.985Z,82.76
2019-05-20T07:21:05.078Z,82.60
2019-05-20T07:23:38.031Z,82.65
2019-05-20T07:26:07.558Z,82.23
2019-05-20T07:28:38.321Z,82.41
2019-05-20T07:31:16.962Z,81.10
2019-05-20T07:33:47.379Z,80.75
2019-05-20T07:36:17.198Z,79.23
2019-05-20T07:38:50.210Z,77.50
2019-05-20T07:41:20.411Z,77.63
2019-05-20T07:43:50.928Z,79.52
2019-05-20T07:46:20.527Z,78.01
2019-05-20T07:48:50.235Z,76.67
2019-05-20T07:51:19.871Z,76.83
2019-05-20T07:53:50.657Z,76.55
2019-05-20T07:56:22.950Z,76.84
2019-05-20T07:58:54.366Z,77.08
2019-05-20T08:01:24.471Z,75.36
2019-05-20T08:03:53.623Z,75.53
2019-05-20T08:06:27.060Z,76.04
2019-05-20T08:08:56.240Z,75.96
2019-05-20T08:11:25.649Z,75.65
2019-05-20T08:13:59.669Z,75.61
2019-05-20T08:16:41.056Z,74.53
2019-05-20T08:19:10.142Z,75.30
2019-05-20T08:21:39.609Z,73.51
2019-05-20T08:24:08.707Z,72.32
2019-05-20T08:26:40.863Z,73.83
2019-05-20T08:29:14.859Z,75.02
2019-05-20T08:31:49.372Z,77.36
2019-05-20T08:34:22.476Z,75.90
2019-05-20T08:36:51.572Z,76.86
2019-05-20T08:39:21.022Z,76.76
2019-05-20T08:41:52.114Z,78.27
2019-05-20T08:44:22.755Z,79.52
2019-05-20T08:46:52.726Z,81.08
2019-05-20T08:49:22.140Z,81.19
2019-05-20T08:51:52.843Z,81.77
2019-05-20T08:54:22.196Z,83.64
2019-05-20T08:56:52.972Z,83.48
2019-05-20T08:59:22.279Z,82.46
2019-05-20T09:01:51.328Z,82.74
2019-05-20T09:04:21.575Z,84.19
2019-05-20T09:06:52.263Z,81.97
2019-05-20T09:09:23.155Z,82.50
2019-05-20T09:11:52.609Z,81.71
2019-05-20T09:14:21.757Z,82.40
2019-05-20T09:16:52.455Z,83.17
2019-05-20T09:19:27.751Z,80.16
2019-05-20T09:21:58.215Z,79.54
2019-05-20T09:24:33.369Z,80.64
2019-05-20T09:27:05.779Z,81.91
2019-05-20T09:29:37.990Z,82.76
2019-05-20T09:32:22.822Z,81.54
2019-05-20T09:34:51.929Z,81.33
2019-05-20T09:37:21.105Z,81.02
2019-05-20T09:39:50.105Z,79.89
2019-05-20T09:42:19.229Z,80.57
2019-05-20T09:44:51.098Z,80.67
2019-05-20T09:47:26.584Z,82.29
2019-05-20T09:49:58.326Z,81.44
2019-05-20T09:52:27.691Z,79.96
2019-05-20T09:54:57.447Z,81.34
2019-05-20T09:57:29.678Z,79.52
2019-05-20T09:59:58.934Z,81.07
2019-05-20T10:02:35.153Z,81.00
2019-05-20T10:05:05.917Z,81.09
2019-05-20T10:07:38.107Z,79.96
2019-05-20T10:10:07.290Z,79.92
2019-05-20T10:12:46.024Z,81.00
2019-05-20T10:15:07.648Z,81.92
2019-05-20T10:17:36.936Z,81.68
2019-05-20T10:20:07.621Z,81.68
2019-05-20T10:22:41.097Z,81.16
2019-05-20T10:25:10.397Z,81.20
2019-05-20T10:27:39.517Z,81.88
2019-05-20T10:30:09.267Z,81.79
2019-05-20T10:32:39.653Z,81.56
2019-05-20T10:35:10.876Z,81.98
2019-05-20T10:37:39.931Z,81.75
2019-05-20T10:40:12.666Z,82.43
2019-05-20T10:42:43.752Z,81.51
2019-05-20T10:45:13.123Z,78.93
2019-05-20T10:47:43.991Z,78.00
2019-05-20T10:50:24.138Z,79.84
2019-05-20T10:52:53.131Z,78.60
2019-05-20T10:55:24.260Z,79.58
2019-05-20T10:57:57.900Z,80.49
2019-05-20T11:00:30.422Z,79.36
2019-05-20T11:03:02.390Z,79.24
2019-05-20T11:05:31.720Z,80.42
2019-05-20T11:08:01.507Z,80.11
2019-05-20T11:10:30.846Z,80.21
2019-05-20T11:13:00.421Z,79.51
2019-05-20T11:15:29.928Z,79.13
2019-05-20T11:18:00.577Z,79.14
2019-05-20T11:20:31.965Z,80.14
2019-05-20T11:23:01.531Z,79.75
2019-05-20T11:25:31.054Z,78.92
2019-05-20T11:28:00.278Z,78.87
2019-05-20T11:30:31.646Z,79.36
2019-05-20T11:33:03.647Z,76.89
2019-05-20T11:35:38.991Z,78.43
2019-05-20T11:38:08.088Z,78.49
2019-05-20T11:40:37.178Z,78.52
2019-05-20T11:43:06.255Z,79.44
2019-05-20T11:45:39.462Z,79.39
2019-05-20T11:48:11.690Z,79.03
2019-05-20T11:50:48.107Z,77.71
2019-05-20T11:53:18.114Z,77.26
2019-05-20T11:55:59.208Z,77.64
2019-05-20T11:58:31.094Z,78.11
2019-05-20T12:01:01.784Z,76.71
2019-05-20T12:03:32.529Z,77.80
2019-05-20T12:06:03.004Z,76.74
2019-05-20T12:08:35.394Z,77.33
2019-05-20T12:11:06.600Z,77.69
2019-05-20T12:13:38.869Z,76.98
2019-05-20T12:16:10.286Z,75.85
2019-05-20T12:18:40.779Z,75.45
2019-05-20T12:21:21.137Z,75.23
2019-05-20T12:23:51.432Z,77.70
2019-05-20T12:26:22.922Z,79.44
2019-05-20T12:28:57.949Z,81.52
2019-05-20T12:31:29.109Z,80.38
2019-05-20T12:33:59.471Z,81.87
2019-05-20T12:36:28.564Z,82.47
2019-05-20T12:39:00.057Z,81.95
2019-05-20T12:41:29.571Z,83.12
2019-05-20T12:44:12.279Z,83.62
2019-05-20T12:46:29.728Z,83.38
2019-05-20T12:48:59.211Z,81.39
2019-05-20T12:51:29.939Z,81.44
2019-05-20T12:54:00.668Z,83.15
2019-05-20T12:56:29.889Z,82.09
2019-05-20T12:59:00.408Z,82.11
2019-05-20T13:01:35.097Z,83.59
2019-05-20T13:04:04.319Z,81.41
2019-05-20T13:06:33.497Z,81.64
2019-05-20T13:09:02.767Z,82.35
2019-05-20T13:11:32.443Z,83.22
2019-05-20T13:14:02.613Z,84.50
2019-05-20T13:16:31.962Z,83.16
2019-05-20T13:19:07.473Z,82.73
2019-05-20T13:21:36.808Z,82.45
2019-05-20T13:24:06.574Z,83.61
2019-05-20T13:26:36.158Z,83.22
2019-05-20T13:29:08.954Z,84.84
2019-05-20T13:31:38.804Z,84.95
2019-05-20T13:34:07.903Z,84.79
2019-05-20T13:36:37.309Z,85.00
2019-05-20T13:39:08.532Z,84.77
2019-05-20T13:41:40.455Z,83.98
2019-05-20T13:44:13.913Z,81.92
2019-05-20T13:46:46.201Z,83.92
2019-05-20T13:49:16.005Z,83.43
2019-05-20T13:51:51.078Z,81.51
2019-05-20T13:54:20.202Z,81.57
2019-05-20T13:56:49.500Z,83.67
2019-05-20T13:59:20.459Z,84.07
2019-05-20T14:01:49.516Z,82.45
2019-05-20T14:04:18.652Z,83.33
2019-05-20T14:06:47.729Z,83.25
2019-05-20T14:09:16.891Z,82.06
2019-05-20T14:11:45.937Z,83.11
2019-05-20T14:14:16.393Z,84.19
2019-05-20T14:16:45.989Z,83.42
2019-05-20T14:19:15.735Z,83.62
2019-05-20T14:21:44.889Z,85.24
2019-05-20T14:24:20.129Z,83.94
2019-05-20T14:26:49.423Z,82.88
2019-05-20T14:29:18.426Z,82.54
2019-05-20T14:31:48.443Z,82.50
2019-05-20T14:34:18.571Z,81.59
2019-05-20T14:36:52.660Z,83.39
2019-05-20T14:39:20.407Z,84.01
2019-05-20T14:41:49.545Z,85.36
2019-05-20T14:44:18.619Z,85.94
2019-05-20T14:46:48.150Z,85.47
2019-05-20T14:49:19.354Z,83.90
2019-05-20T14:51:53.299Z,83.67
2019-05-20T14:54:22.363Z,83.18
2019-05-20T14:56:56.171Z,85.12
2019-05-20T14:59:29.994Z,85.15
2019-05-20T15:01:59.094Z,85.20
2019-05-20T15:04:28.189Z,83.96
2019-05-20T15:06:58.145Z,82.50
2019-05-20T15:09:31.954Z,83.24
2019-05-20T15:12:01.372Z,83.92
2019-05-20T15:14:32.636Z,84.17
2019-05-20T15:17:03.902Z,83.45
2019-05-20T15:19:35.525Z,84.49
2019-05-20T15:22:04.713Z,83.78
2019-05-20T15:24:33.901Z,81.73
2019-05-20T15:27:03.079Z,82.74
2019-05-20T15:29:32.149Z,84.42
2019-05-20T15:32:01.431Z,83.84
2019-05-20T15:34:33.808Z,83.50
2019-05-20T15:37:07.995Z,85.12
2019-05-20T15:39:37.049Z,85.49
2019-05-20T15:42:07.562Z,83.54
2019-05-20T15:44:38.228Z,84.80
2019-05-20T15:47:07.259Z,84.98
2019-05-20T15:49:36.349Z,84.29
2019-05-20T15:52:05.518Z,82.55
2019-05-20T15:54:36.363Z,83.06
2019-05-20T15:57:06.300Z,83.87
2019-05-20T15:59:45.486Z,83.82
2019-05-20T16:02:09.208Z,83.54
2019-05-20T16:04:38.332Z,82.34
2019-05-20T16:07:07.452Z,81.93
2019-05-20T16:09:40.347Z,81.74
2019-05-20T16:12:09.801Z,82.51
2019-05-20T16:14:38.891Z,81.08
2019-05-20T16:17:07.969Z,80.90
2019-05-20T16:19:37.055Z,81.20
2019-05-20T16:22:06.978Z,81.81
2019-05-20T16:24:36.415Z,82.89
2019-05-20T16:27:06.884Z,83.00
2019-05-20T16:29:36.014Z,84.80
2019-05-20T16:32:14.396Z,84.49
2019-05-20T16:34:44.983Z,84.32
2019-05-20T16:37:16.493Z,84.26
2019-05-20T16:39:45.951Z,85.32
2019-05-20T16:42:15.040Z,86.14
2019-05-20T16:44:46.656Z,83.83
2019-05-20T16:47:15.725Z,82.74
2019-05-20T16:49:44.831Z,83.04
2019-05-20T16:52:17.355Z,83.44
2019-05-20T16:54:50.790Z,84.76
2019-05-20T16:57:25.017Z,83.00
2019-05-20T16:59:54.097Z,83.37
2019-05-20T17:02:23.140Z,83.88
2019-05-20T17:04:52.367Z,84.81
2019-05-20T17:07:25.068Z,83.54
2019-05-20T17:09:54.175Z,82.67
2019-05-20T17:12:27.753Z,82.64
2019-05-20T17:14:58.397Z,82.70
2019-05-20T17:17:27.535Z,82.54
2019-05-20T17:19:56.596Z,82.51
2019-05-20T17:22:27.333Z,82.42
2019-05-20T17:25:04.114Z,85.45
2019-05-20T17:27:38.700Z,84.07
2019-05-20T17:30:09.629Z,83.51
2019-05-20T17:32:41.567Z,81.90
2019-05-20T17:35:20.820Z,85.69
2019-05-20T17:37:50.023Z,84.78
2019-05-20T17:40:20.495Z,84.22
2019-05-20T17:42:52.568Z,84.81
2019-05-20T17:45:24.096Z,84.68
2019-05-20T17:47:53.525Z,86.24
2019-05-20T17:50:25.652Z,85.94
2019-05-20T17:52:56.067Z,86.49
2019-05-20T17:55:31.066Z,86.04
2019-05-20T17:58:05.330Z,86.69
2019-05-20T18:00:34.544Z,87.16
2019-05-20T18:03:04.041Z,86.87
2019-05-20T18:05:33.887Z,87.27
2019-05-20T18:08:02.942Z,86.90
2019-05-20T18:10:31.991Z,86.11
2019-05-20T18:13:01.857Z,87.35
2019-05-20T18:15:30.955Z,87.67
2019-05-20T18:18:00.411Z,88.34
2019-05-20T18:20:29.734Z,88.22
2019-05-20T18:23:04.085Z,85.28
2019-05-20T18:25:33.144Z,84.17
2019-05-20T18:28:04.204Z,84.72
2019-05-20T18:30:33.292Z,85.32
2019-05-20T18:33:02.381Z,84.50
2019-05-20T18:35:31.598Z,85.31
2019-05-20T18:38:01.130Z,85.28
2019-05-20T18:40:30.656Z,85.64
2019-05-20T18:43:00.790Z,86.26
2019-05-20T18:45:29.853Z,85.45
2019-05-20T18:47:58.940Z,85.96
2019-05-20T18:50:29.243Z,85.69
2019-05-20T18:53:00.154Z,85.29
2019-05-20T18:55:35.008Z,84.89
2019-05-20T18:58:05.893Z,85.01
2019-05-20T19:00:38.172Z,86.67
2019-05-20T19:03:07.233Z,86.24
2019-05-20T19:05:38.855Z,86.87
2019-05-20T19:08:14.256Z,86.50
2019-05-20T19:10:43.312Z,85.50
2019-05-20T19:13:12.389Z,85.76
2019-05-20T19:15:41.495Z,86.94
2019-05-20T19:18:12.480Z,85.32
2019-05-20T19:20:43.261Z,86.39
2019-05-20T19:23:12.293Z,86.41
2019-05-20T19:25:49.024Z,87.33
2019-05-20T19:28:18.617Z,86.87
2019-05-20T19:30:47.710Z,87.22
2019-05-20T19:33:18.222Z,88.05
2019-05-20T19:35:49.439Z,87.58
2019-05-20T19:38:31.738Z,88.48
2019-05-20T19:41:00.903Z,87.37
2019-05-20T19:43:30.015Z,88.45
2019-05-20T19:45:59.522Z,89.11
2019-05-20T19:48:28.586Z,89.18
2019-05-20T19:50:57.703Z,89.27
2019-05-20T19:53:30.044Z,89.23
2019-05-20T19:56:02.251Z,88.20
2019-05-20T19:58:31.748Z,88.99
2019-05-20T20:01:01.893Z,87.21
2019-05-20T20:03:31.415Z,88.49
2019-05-20T20:06:03.668Z,88.78
2019-05-20T20:08:32.731Z,89.21
2019-05-20T20:11:01.796Z,89.02
2019-05-20T20:13:33.935Z,90.40
2019-05-20T20:16:08.028Z,89.38
2019-05-20T20:18:32.790Z,89.47
2019-05-20T20:21:01.884Z,90.20
2019-05-20T20:23:31.466Z,89.38
2019-05-20T20:26:04.867Z,89.96
2019-05-20T20:28:33.987Z,89.79
2019-05-20T20:31:03.132Z,90.14
2019-05-20T20:33:32.208Z,90.44
2019-05-20T20:36:01.321Z,90.08
2019-05-20T20:38:30.433Z,87.88
2019-05-20T20:40:59.530Z,89.37
2019-05-20T20:43:32.158Z,89.59
2019-05-20T20:45:59.512Z,89.38
2019-05-20T20:48:31.620Z,90.03
2019-05-20T20:51:01.035Z,89.53
2019-05-20T20:53:35.254Z,89.32
2019-05-20T20:56:06.172Z,90.12
2019-05-20T20:58:35.705Z,89.77
2019-05-20T21:01:06.810Z,89.35
2019-05-20T21:03:36.897Z,91.23
2019-05-20T21:06:06.060Z,91.18
2019-05-20T21:08:35.570Z,90.33
2019-05-20T21:11:08.513Z,89.84
2019-05-20T21:13:38.684Z,90.86
2019-05-20T21:16:07.772Z,90.16
2019-05-20T21:18:39.833Z,90.09
2019-05-20T21:21:08.861Z,90.81
2019-05-20T21:23:38.188Z,91.14
2019-05-20T21:26:10.979Z,92.04
2019-05-20T21:28:43.508Z,91.70
2019-05-20T21:31:31.535Z,92.34
2019-05-20T21:34:04.971Z,91.07
2019-05-20T21:36:47.316Z,92.18
2019-05-20T21:39:07.454Z,91.20
2019-05-20T21:41:39.056Z,91.97
2019-05-20T21:44:08.231Z,92.04
2019-05-20T21:47:14.606Z,92.03
2019-05-20T21:49:47.074Z,90.80
2019-05-20T21:52:16.337Z,91.53
2019-05-20T21:54:46.691Z,93.14
2019-05-20T21:57:20.243Z,93.20
2019-05-20T21:59:49.839Z,92.19
2019-05-20T22:02:20.639Z,91.76
2019-05-20T22:04:49.793Z,91.58
2019-05-20T22:07:20.288Z,92.46
2019-05-20T22:09:56.987Z,91.90
2019-05-20T22:12:36.632Z,91.24
2019-05-20T22:15:06.537Z,90.48
2019-05-20T22:17:39.529Z,90.36
2019-05-20T22:20:08.834Z,91.06
2019-05-20T22:22:46.441Z,91.02
2019-05-20T22:25:17.977Z,92.24
2019-05-20T22:27:51.230Z,92.24
2019-05-20T22:30:20.341Z,92.82
2019-05-20T22:32:50.513Z,92.15
2019-05-20T22:35:23.338Z,93.21
2019-05-20T22:37:52.375Z,91.31
2019-05-20T22:40:21.439Z,90.04
2019-05-20T22:42:50.472Z,89.36
2019-05-20T22:45:19.570Z,90.49
2019-05-20T22:47:48.623Z,90.65
2019-05-20T22:50:17.672Z,91.36
2019-05-20T22:52:49.687Z,90.79
2019-05-20T22:55:18.747Z,89.52
2019-05-20T22:57:47.818Z,88.54
2019-05-20T23:00:16.849Z,88.68
2019-05-20T23:02:45.947Z,88.88
2019-05-20T23:05:15.866Z,90.27
2019-05-20T23:07:45.026Z,89.75
2019-05-20T23:10:14.310Z,90.82
2019-05-20T23:12:45.041Z,90.70
2019-05-20T23:15:15.614Z,91.13
2019-05-20T23:17:47.434Z,90.41
2019-05-20T23:20:18.270Z,91.59
2019-05-20T23:22:52.541Z,91.26
2019-05-20T23:25:21.575Z,91.23
2019-05-20T23:27:52.423Z,91.16
2019-05-20T23:30:21.541Z,90.12
2019-05-20T23:32:51.056Z,91.34
2019-05-20T23:35:21.440Z,91.26
2019-05-20T23:37:54.637Z,90.75
2019-05-20T23:40:24.980Z,90.98
2019-05-20T23:42:54.305Z,91.04
2019-05-20T23:45:23.961Z,91.12
2019-05-20T23:47:57.612Z,91.44
2019-05-20T23:50:30.583Z,91.41
2019-05-20T23:53:01.407Z,90.03
2019-05-20T23:55:30.462Z,90.70
2019-05-20T23:58:03.585Z,90.66
